首页
METAR-TAF:

METAR-TAF

机场 :

科托卡国际机场

阿克拉, 加纳

纬度: 05-36N, 经度: 000-10W, 海拔: 68米

当前天气观测

该预报发布于50分钟前的03:00 UTC
风速5节,风向西
温度 27°C
湿度 89%
气压 1012 hPa
能见度10公里或以上
少量云层高于1200英尺

METAR: DGAA 280300Z 27005KT 9999 FEW012 27/25 Q1012 NOSIG

时间: 03:50 (03:50 UTC)

预报

该预报发布于4小时和50分钟前的23:00 UTC
预报有效从28日的 00点(UTC)到 29日的 06点(UTC)
风速8节,风向南转西南
能见度10公里或以上
1500米以下无云,无积雨云
成为
从 28日的 02点(UTC)到 28日的 04点(UTC)
风速6节,风向西
成为
从 28日的 06点(UTC)到 28日的 08点(UTC)
多云层高于1200英尺
成为
从 28日的 11点(UTC)到 28日的 13点(UTC)
风速12节,风向
散云层高于1800英尺

TAF: DGAA 272300Z 2800/2906 21008KT CAVOK BECMG 2802/2804 27006KT BECMG 2806/2808 BKN012 BECMG 2811/2813 18012KT SCT018

超过4000个机场的气象观测和天气预报(METAR&TAF报告)。

可查询的气象台以黄色和红色小点在地图上表示。

将鼠标移到小点上方,可查看气象台名称。

然后点击查看天气观测和预报。

如需切换地图:点击带黑十字的绿色按钮放大地图;点击带横线的绿色按钮缩小地图;或者点击绿色箭头查看邻近地区的地图。


METAR-TAF: